Flight CAN1435

  • Submitted By: Alex Kochkin
  • Departure Airport: Hamad International (OTHH)
  • Arrival Airport: Lagos Airport (DNMM)
  • Aircraft: B787-900 (C-B789)
  • Flight Time: 06.17.26
  • Date Submitted: 07/07/2018
  • Route: SALW1E SALWA M430 HSA UM430 KIREN M430 GOLNO UM430 KOBOX M430 KIA G782 DURMA M309 KUTOL/N0488F400 M309 VEMEM G782 KAPAV V42 JDW UM863 IPONO UQ589 ENERI UW605 VOSLI UQ589 ISDET UW605 OPDAP UQ589 TJR UA861 OXILO UT457 KONEB UT458 GEGBA/N0385F240 H340 ERAMI ERAM1M
  • Status: Accepted
Flight Details
Gross Revenue:
(250 load / $ 889.89 per unit
$ 222, 472.50
Fuel Cost:
(30840.2 fuel used @ 2.5 / unit)
$ 77, 100.50

Comments

Commenter Comment
Alex Kochkin It was a landing with poor weather conditions. Some stalls were due turbulence. DNMM 071900Z VRB02KT 7000 BKN007 FEW017CB 22/22 Q1015 NOSIG Decoded textual weather for DNMM Wind: Variable at 2 knots Variable wind direction from 000 to 360 Visibility: 4.3 SM (7000 m) Clouds: Few at 1700 feet Temperature: 22.0C Dewpoint: 22.0C Precipitation: Heavy rain Altimeter: 1015 mb (29.97 inches) Thunderstorms in the vicinity

Route Map